Time;durP1;ratioP1;P1;durP2;ratioP2;P2;SDS_P1;SDS_P2;PMS_P1;PMS_P2;Temp;Humidity;BMP_temperature;BMP_pressure;BME280_temperature;BME280_humidity;BME280_pressure;Samples;Min_cycle;Max_cycle;Signal;HPM_P1;HPM_P2
2023/07/20 00:01:12;;;;;;;6.20;4.00;;;;;;;-141.20;100.00;60650.00;5005864;28;20034;-74
2023/07/20 00:03:37;;;;;;;9.40;4.20;;;;;;;-141.20;100.00;60650.00;5015363;28;20080;-74
2023/07/20 00:06:04;;;;;;;4.95;3.90;;;;;;;-141.20;100.00;60650.00;5022051;28;20041;-73
2023/07/20 00:08:29;;;;;;;6.68;4.13;;;;;;;-141.20;100.00;60650.00;5019957;28;20535;-73
2023/07/20 00:10:54;;;;;;;5.95;4.28;;;;;;;-141.20;100.00;60650.00;5002294;28;20125;-74
2023/07/20 00:13:20;;;;;;;4.82;3.95;;;;;;;-141.20;100.00;60650.00;5028030;28;20036;-73
2023/07/20 00:15:46;;;;;;;7.60;4.50;;;;;;;-141.20;100.00;60650.00;5013189;28;20030;-74
2023/07/20 00:18:12;;;;;;;5.85;3.92;;;;;;;-141.20;100.00;60650.00;5026411;28;20037;-73
2023/07/20 00:20:37;;;;;;;7.40;3.90;;;;;;;-141.20;100.00;60650.00;5026126;28;20055;-75
2023/07/20 00:23:03;;;;;;;5.90;3.97;;;;;;;-141.20;100.00;60650.00;5025658;28;20052;-73
2023/07/20 00:25:28;;;;;;;4.82;4.22;;;;;;;-141.20;100.00;60650.00;5025588;28;20064;-71
2023/07/20 00:27:54;;;;;;;5.93;4.43;;;;;;;-141.20;100.00;60650.00;5019087;28;20021;-71
2023/07/20 00:30:20;;;;;;;4.72;4.10;;;;;;;-141.20;100.00;60650.00;5019331;28;20117;-71
2023/07/20 00:32:45;;;;;;;123.38;17.65;;;;;;;-141.20;100.00;60650.00;5025767;28;20022;-71
2023/07/20 00:35:11;;;;;;;6.13;4.20;;;;;;;-141.20;100.00;60650.00;5023742;28;20152;-71
2023/07/20 00:37:37;;;;;;;5.32;4.22;;;;;;;-141.20;100.00;60650.00;5034176;28;20025;-71
2023/07/20 00:40:04;;;;;;;6.32;4.30;;;;;;;-141.20;100.00;60650.00;5027932;28;20034;-70
2023/07/20 00:42:29;;;;;;;8.27;5.07;;;;;;;-141.20;100.00;60650.00;5011519;28;20476;-72
2023/07/20 00:44:55;;;;;;;272.23;34.05;;;;;;;-141.20;100.00;60650.00;5012357;28;20044;-73
2023/07/20 00:47:21;;;;;;;7.32;4.40;;;;;;;-141.20;100.00;60650.00;5011381;28;20431;-73
2023/07/20 00:49:47;;;;;;;6.45;4.65;;;;;;;-141.20;100.00;60650.00;5025577;28;20033;-72
2023/07/20 00:52:14;;;;;;;5.85;4.50;;;;;;;-141.20;100.00;60650.00;5027974;28;20025;-72
2023/07/20 00:54:42;;;;;;;8.43;4.85;;;;;;;-141.20;100.00;60650.00;5011078;28;20176;-72
2023/07/20 00:57:07;;;;;;;8.82;5.05;;;;;;;-141.20;100.00;60650.00;5023978;28;20034;-73
2023/07/20 00:59:34;;;;;;;8.35;5.22;;;;;;;-141.20;100.00;60650.00;5024689;28;20144;-72
2023/07/20 01:01:59;;;;;;;6.57;5.10;;;;;;;-141.20;100.00;60650.00;5017761;28;20018;-71
2023/07/20 01:04:27;;;;;;;7.82;4.78;;;;;;;-141.20;100.00;60650.00;5011090;28;20041;-71
2023/07/20 01:07:12;;;;;;;6.90;4.32;;;;;;;-141.20;100.00;60650.00;5025391;28;20064;-71
2023/07/20 01:09:49;;;;;;;7.07;4.53;;;;;;;-141.20;100.00;60650.00;5024370;28;20048;-72
2023/07/20 01:12:38;;;;;;;6.65;4.10;;;;;;;-141.20;100.00;60650.00;5005606;28;20404;-71
2023/07/20 01:15:04;;;;;;;6.75;4.63;;;;;;;-141.20;100.00;60650.00;5030713;28;20424;-71
2023/07/20 01:17:29;;;;;;;6.28;4.05;;;;;;;-141.20;100.00;60650.00;5013529;28;20022;-72
2023/07/20 01:19:55;;;;;;;779.17;334.58;;;;;;;-141.20;100.00;60650.00;5019408;28;20030;-70
2023/07/20 01:22:47;;;;;;;6.15;4.20;;;;;;;-141.20;100.00;60650.00;5019819;28;20022;-73
2023/07/20 01:25:41;;;;;;;10.35;4.35;;;;;;;-141.20;100.00;60650.00;5021281;28;20037;-73
2023/07/20 01:28:31;;;;;;;9.60;4.82;;;;;;;-141.20;100.00;60650.00;4983019;28;20033;-74
2023/07/20 01:31:09;;;;;;;7.80;4.32;;;;;;;-141.20;100.00;60650.00;5040719;28;20042;-73
2023/07/20 01:33:34;;;;;;;6.15;4.60;;;;;;;-141.20;100.00;60650.00;5024289;28;20403;-74
2023/07/20 01:36:00;;;;;;;7.78;4.35;;;;;;;-141.20;100.00;60650.00;5030420;28;20403;-73
2023/07/20 01:38:28;;;;;;;2.33;2.13;;;;;;;-141.20;100.00;60650.00;5018432;28;20432;-73
2023/07/20 01:40:53;;;;;;;6.13;3.40;;;;;;;-141.20;100.00;60650.00;5027077;28;20487;-73
2023/07/20 01:43:20;;;;;;;6.18;4.40;;;;;;;-141.20;100.00;60650.00;5020723;28;20037;-73
2023/07/20 01:45:45;;;;;;;7.07;4.15;;;;;;;-141.20;100.00;60650.00;5011288;28;20021;-73
2023/07/20 01:48:12;;;;;;;3.75;3.22;;;;;;;-141.20;100.00;60650.00;4994303;28;20034;-73
2023/07/20 01:50:38;;;;;;;6.45;4.00;;;;;;;-141.20;100.00;60650.00;5026873;28;20113;-73
2023/07/20 01:53:03;;;;;;;5.97;3.47;;;;;;;-141.20;100.00;60650.00;5011496;28;20121;-73
2023/07/20 01:55:29;;;;;;;5.18;3.55;;;;;;;-141.20;100.00;60650.00;5010572;28;20018;-72
2023/07/20 01:57:55;;;;;;;4.55;3.47;;;;;;;-141.20;100.00;60650.00;5026779;28;20034;-72
2023/07/20 02:00:23;;;;;;;6.47;4.03;;;;;;;-141.20;100.00;60650.00;5016889;28;20400;-71
2023/07/20 02:02:50;;;;;;;5.85;3.38;;;;;;;-141.20;100.00;60650.00;5040308;28;20542;-73
2023/07/20 02:05:16;;;;;;;5.25;3.72;;;;;;;-141.20;100.00;60650.00;5026497;28;20030;-71
2023/07/20 02:07:42;;;;;;;7.00;3.67;;;;;;;-141.20;100.00;60650.00;5020414;28;20060;-72
2023/07/20 02:10:07;;;;;;;5.82;3.38;;;;;;;-141.20;100.00;60650.00;5011495;28;20040;-74
2023/07/20 02:12:34;;;;;;;5.00;3.10;;;;;;;-141.20;100.00;60650.00;5011138;28;20508;-73
2023/07/20 02:14:59;;;;;;;5.95;3.70;;;;;;;-141.20;100.00;60650.00;4993628;28;20061;-74
2023/07/20 02:17:25;;;;;;;6.22;3.70;;;;;;;-141.20;100.00;60650.00;5020513;28;20087;-72
2023/07/20 02:19:52;;;;;;;5.18;3.65;;;;;;;-141.20;100.00;60650.00;5011165;28;20069;-73
2023/07/20 02:22:18;;;;;;;6.72;3.65;;;;;;;-141.20;100.00;60650.00;5028719;28;20399;-73
2023/07/20 02:24:43;;;;;;;5.68;3.42;;;;;;;-141.20;100.00;60650.00;5000792;28;20025;-74
2023/07/20 02:27:08;;;;;;;4.70;3.30;;;;;;;-141.20;100.00;60650.00;4996750;28;20040;-73
2023/07/20 02:29:34;;;;;;;5.13;3.50;;;;;;;-141.20;100.00;60650.00;5016873;28;20398;-74
2023/07/20 02:31:59;;;;;;;7.72;3.75;;;;;;;-141.20;100.00;60650.00;5026384;28;20628;-75
2023/07/20 02:34:25;;;;;;;6.60;3.72;;;;;;;-141.20;100.00;60650.00;4993776;28;20499;-75
2023/07/20 02:36:50;;;;;;;5.85;3.85;;;;;;;-141.20;100.00;60650.00;5009880;28;20041;-73
2023/07/20 02:39:15;;;;;;;4.53;3.80;;;;;;;-141.20;100.00;60650.00;4996906;28;20121;-73
2023/07/20 02:41:41;;;;;;;9.30;3.63;;;;;;;-141.20;100.00;60650.00;5019931;28;20480;-73
2023/07/20 02:44:06;;;;;;;7.43;3.83;;;;;;;-141.20;100.00;60650.00;5016543;28;20109;-73
2023/07/20 02:46:32;;;;;;;6.43;3.33;;;;;;;-141.20;100.00;60650.00;5022728;28;20454;-73
2023/07/20 02:48:57;;;;;;;6.68;3.80;;;;;;;-141.20;100.00;60650.00;5026106;28;20034;-73
2023/07/20 02:51:23;;;;;;;7.45;4.10;;;;;;;-141.20;100.00;60650.00;5009663;28;20084;-71
2023/07/20 02:53:48;;;;;;;6.20;3.92;;;;;;;-141.20;100.00;60650.00;5012823;28;20026;-73
2023/07/20 02:56:15;;;;;;;5.55;3.97;;;;;;;-141.20;100.00;60650.00;5009628;28;20623;-73
2023/07/20 02:58:43;;;;;;;9.50;4.07;;;;;;;-141.20;100.00;60650.00;4990072;28;20029;-73
2023/07/20 03:01:09;;;;;;;6.60;4.10;;;;;;;-141.20;100.00;60650.00;5008638;28;20035;-73
2023/07/20 03:03:38;;;;;;;6.18;4.07;;;;;;;-141.20;100.00;60650.00;5021041;28;20025;-73
2023/07/20 03:06:05;;;;;;;7.97;4.30;;;;;;;-141.20;100.00;60650.00;5026971;28;20129;-72
2023/07/20 03:08:30;;;;;;;6.88;3.35;;;;;;;-141.20;100.00;60650.00;5029387;28;20491;-72
2023/07/20 03:10:55;;;;;;;5.63;3.22;;;;;;;-141.20;100.00;60650.00;5014069;28;20034;-72
2023/07/20 03:13:21;;;;;;;6.35;3.45;;;;;;;-141.20;100.00;60650.00;5013977;28;20030;-72
2023/07/20 03:15:46;;;;;;;4.78;3.38;;;;;;;-141.20;100.00;60650.00;5013685;28;20579;-72
2023/07/20 03:18:12;;;;;;;6.85;3.28;;;;;;;-141.20;100.00;60650.00;5032717;28;20036;-72
2023/07/20 03:20:38;;;;;;;5.97;3.28;;;;;;;-141.20;100.00;60650.00;5026414;28;20033;-71
2023/07/20 03:23:04;;;;;;;4.13;3.20;;;;;;;-141.20;100.00;60650.00;5029164;28;20377;-71
2023/07/20 03:25:29;;;;;;;10.77;3.63;;;;;;;-141.20;100.00;60650.00;5025835;28;20045;-71
2023/07/20 03:27:55;;;;;;;7.13;3.08;;;;;;;-141.20;100.00;60650.00;5019450;28;20025;-71
2023/07/20 03:30:21;;;;;;;6.38;3.30;;;;;;;-141.20;100.00;60650.00;5018874;28;20116;-73
2023/07/20 03:32:47;;;;;;;7.10;4.68;;;;;;;-141.20;100.00;60650.00;4996386;28;20018;-71
2023/07/20 03:35:12;;;;;;;7.68;3.78;;;;;;;-141.20;100.00;60650.00;5012454;28;20037;-72
2023/07/20 03:37:38;;;;;;;6.20;3.58;;;;;;;-141.20;100.00;60650.00;5015528;28;20018;-73
2023/07/20 03:40:04;;;;;;;6.97;4.05;;;;;;;-141.20;100.00;60650.00;5019217;28;20167;-71
2023/07/20 03:42:30;;;;;;;9.90;4.82;;;;;;;-141.20;100.00;60650.00;5025430;28;20130;-75
2023/07/20 03:44:56;;;;;;;7.47;4.22;;;;;;;-141.20;100.00;60650.00;5008739;28;20120;-70
2023/07/20 03:47:21;;;;;;;7.40;4.18;;;;;;;-141.20;100.00;60650.00;5028835;28;20028;-73
2023/07/20 03:49:47;;;;;;;5.80;4.20;;;;;;;-141.20;100.00;60650.00;5015510;28;20033;-73
2023/07/20 03:52:12;;;;;;;7.05;3.72;;;;;;;-141.20;100.00;60650.00;5025831;28;20033;-74
2023/07/20 03:54:37;;;;;;;6.88;4.10;;;;;;;-141.20;100.00;60650.00;5012175;28;20038;-75
2023/07/20 03:57:03;;;;;;;6.22;4.25;;;;;;;-141.20;100.00;60650.00;5025592;28;20030;-74
2023/07/20 03:59:28;;;;;;;6.80;4.25;;;;;;;-141.20;100.00;60650.00;5024622;28;20373;-74
2023/07/20 04:01:54;;;;;;;9.55;4.68;;;;;;;-141.20;100.00;60650.00;5013804;28;20132;-75
2023/07/20 04:04:20;;;;;;;5.30;4.20;;;;;;;-141.20;100.00;60650.00;5007461;28;20514;-75
2023/07/20 04:06:45;;;;;;;6.68;4.32;;;;;;;-141.20;100.00;60650.00;5011634;28;20030;-75
2023/07/20 04:09:12;;;;;;;8.02;4.60;;;;;;;-141.20;100.00;60650.00;5011714;28;20045;-75
2023/07/20 04:11:38;;;;;;;7.63;4.47;;;;;;;-141.20;100.00;60650.00;4994159;28;20427;-74
2023/07/20 04:14:03;;;;;;;8.25;4.97;;;;;;;-141.20;100.00;60650.00;4995497;28;20044;-75
2023/07/20 04:16:29;;;;;;;6.93;4.95;;;;;;;-141.20;100.00;60650.00;5017176;28;20163;-73
2023/07/20 04:18:58;;;;;;;7.57;4.85;;;;;;;-141.20;100.00;60650.00;5023487;28;20124;-75
2023/07/20 04:21:23;;;;;;;5.88;4.68;;;;;;;-141.20;100.00;60650.00;5025198;28;20032;-76
2023/07/20 04:23:48;;;;;;;7.63;4.90;;;;;;;-141.20;100.00;60650.00;5020196;28;20042;-74
2023/07/20 04:26:15;;;;;;;7.63;4.82;;;;;;;-141.20;100.00;60650.00;5024707;28;20054;-73
2023/07/20 04:28:42;;;;;;;6.72;4.80;;;;;;;-141.20;100.00;60650.00;5023551;28;20040;-73
2023/07/20 04:31:12;;;;;;;7.75;4.95;;;;;;;-141.20;100.00;60650.00;5009058;28;20018;-75
2023/07/20 04:33:37;;;;;;;6.95;4.60;;;;;;;-141.20;100.00;60650.00;5012437;28;20381;-75
2023/07/20 04:36:04;;;;;;;7.82;4.85;;;;;;;-141.20;100.00;60650.00;5030853;28;20021;-76
2023/07/20 04:38:32;;;;;;;6.78;4.60;;;;;;;-141.20;100.00;60650.00;5012270;28;20565;-75
2023/07/20 04:41:06;;;;;;;6.60;4.82;;;;;;;-141.20;100.00;60650.00;5007433;28;20053;-76
2023/07/20 04:43:41;;;;;;;8.35;4.68;;;;;;;-141.20;100.00;60650.00;4998013;28;20037;-75
2023/07/20 04:46:06;;;;;;;8.00;4.55;;;;;;;-141.20;100.00;60650.00;5020741;28;20079;-77
2023/07/20 04:48:33;;;;;;;8.35;5.20;;;;;;;-141.20;100.00;60650.00;5027477;28;20026;-76
2023/07/20 04:50:59;;;;;;;8.05;4.60;;;;;;;-141.20;100.00;60650.00;5017884;28;20045;-76
2023/07/20 04:53:24;;;;;;;6.10;4.60;;;;;;;-141.20;100.00;60650.00;5015072;28;20063;-76
2023/07/20 04:55:51;;;;;;;7.53;5.03;;;;;;;-141.20;100.00;60650.00;5021433;28;20545;-76
2023/07/20 04:58:19;;;;;;;8.15;5.20;;;;;;;-141.20;100.00;60650.00;5014333;28;20025;-74
2023/07/20 05:00:44;;;;;;;8.95;5.30;;;;;;;-141.20;100.00;60650.00;5011010;28;20034;-76
2023/07/20 05:03:10;;;;;;;6.25;5.15;;;;;;;-141.20;100.00;60650.00;5010933;28;20044;-75
2023/07/20 05:05:35;;;;;;;8.32;4.90;;;;;;;-141.20;100.00;60650.00;5014354;28;20033;-74
2023/07/20 05:08:01;;;;;;;7.07;5.30;;;;;;;-141.20;100.00;60650.00;5010568;28;20529;-75
2023/07/20 05:10:26;;;;;;;8.07;4.72;;;;;;;-141.20;100.00;60650.00;5027482;28;20030;-75
2023/07/20 05:12:51;;;;;;;9.65;5.30;;;;;;;-141.20;100.00;60650.00;5010441;28;20041;-75
2023/07/20 05:15:17;;;;;;;10.13;5.57;;;;;;;-141.20;100.00;60650.00;5021038;28;20515;-76
2023/07/20 05:17:42;;;;;;;7.63;5.43;;;;;;;-141.20;100.00;60650.00;5023333;28;20033;-74
2023/07/20 05:20:12;;;;;;;6.70;5.05;;;;;;;-141.20;100.00;60650.00;5017112;28;20080;-75
2023/07/20 05:22:39;;;;;;;7.65;5.30;;;;;;;-141.20;100.00;60650.00;5010973;28;20084;-75
2023/07/20 05:25:09;;;;;;;8.70;5.10;;;;;;;-141.20;100.00;60650.00;5004267;28;20082;-75
2023/07/20 05:27:38;;;;;;;10.05;4.43;;;;;;;-141.20;100.00;60650.00;5028258;28;20038;-75
2023/07/20 05:30:04;;;;;;;269.77;90.93;;;;;;;-141.20;100.00;60650.00;5021563;28;20048;-77
2023/07/20 05:32:29;;;;;;;9.15;5.72;;;;;;;-141.20;100.00;60650.00;5018310;28;20438;-72
2023/07/20 05:34:55;;;;;;;8.63;5.53;;;;;;;-141.20;100.00;60650.00;5020841;28;20105;-74
2023/07/20 05:37:21;;;;;;;10.40;5.05;;;;;;;-141.20;100.00;60650.00;5015807;28;20045;-70
2023/07/20 05:39:46;;;;;;;4.93;4.43;;;;;;;-141.20;100.00;60650.00;5020047;28;20111;-71
2023/07/20 05:42:11;;;;;;;5.45;3.78;;;;;;;-141.20;100.00;60650.00;5023383;28;20041;-71
2023/07/20 05:44:37;;;;;;;9.88;4.18;;;;;;;-141.20;100.00;60650.00;5011216;28;20141;-70
2023/07/20 05:47:02;;;;;;;8.77;3.70;;;;;;;-141.20;100.00;60650.00;5011203;28;20042;-70
2023/07/20 05:49:28;;;;;;;8.52;3.83;;;;;;;-141.20;100.00;60650.00;5011234;28;20393;-70
2023/07/20 05:51:57;;;;;;;5.45;3.80;;;;;;;-141.20;100.00;60650.00;5023740;28;20069;-70
2023/07/20 05:54:24;;;;;;;5.57;3.25;;;;;;;-141.20;100.00;60650.00;5021997;28;20048;-70
2023/07/20 05:56:49;;;;;;;5.68;3.53;;;;;;;-141.20;100.00;60650.00;5012223;28;20038;-70
2023/07/20 05:59:15;;;;;;;9.25;3.30;;;;;;;-141.20;100.00;60650.00;5022095;28;20026;-70
2023/07/20 06:01:41;;;;;;;4.38;3.25;;;;;;;-141.20;100.00;60650.00;5012245;28;20068;-70
2023/07/20 06:04:06;;;;;;;7.75;4.50;;;;;;;-141.20;100.00;60650.00;5021865;28;20048;-71
2023/07/20 06:06:32;;;;;;;6.53;4.90;;;;;;;-141.20;100.00;60650.00;5030673;28;20083;-71
2023/07/20 06:08:57;;;;;;;7.45;4.50;;;;;;;-141.20;100.00;60650.00;5020071;28;20396;-71
2023/07/20 06:11:22;;;;;;;6.05;4.43;;;;;;;-141.20;100.00;60650.00;5010937;28;20070;-70
2023/07/20 06:13:48;;;;;;;7.68;4.70;;;;;;;-141.20;100.00;60650.00;5019742;28;20155;-70
2023/07/20 06:16:13;;;;;;;6.65;4.30;;;;;;;-141.20;100.00;60650.00;5041788;28;20066;-70
2023/07/20 06:18:39;;;;;;;6.38;4.13;;;;;;;-141.20;100.00;60650.00;5029711;28;20471;-70
2023/07/20 06:21:04;;;;;;;7.20;4.25;;;;;;;-141.20;100.00;60650.00;5034777;28;20049;-70
2023/07/20 06:23:30;;;;;;;7.82;4.22;;;;;;;-141.20;100.00;60650.00;5026980;28;20030;-70
2023/07/20 06:25:55;;;;;;;4.60;3.47;;;;;;;-141.20;100.00;60650.00;5039340;28;20037;-71
2023/07/20 06:28:20;;;;;;;5.30;3.63;;;;;;;-141.20;100.00;60650.00;5035782;28;20386;-70
2023/07/20 06:30:46;;;;;;;4.93;3.38;;;;;;;-141.20;100.00;60650.00;5026561;28;20041;-70
2023/07/20 06:33:12;;;;;;;3.47;3.13;;;;;;;-141.20;100.00;60650.00;5019444;28;20021;-70
2023/07/20 06:35:37;;;;;;;8.10;3.58;;;;;;;-141.20;100.00;60650.00;5016961;28;20460;-70
2023/07/20 06:38:03;;;;;;;6.50;3.22;;;;;;;-141.20;100.00;60650.00;5033270;28;20033;-70
2023/07/20 06:40:29;;;;;;;6.38;3.35;;;;;;;-141.20;100.00;60650.00;5034307;28;20091;-70
2023/07/20 06:42:55;;;;;;;4.13;3.20;;;;;;;-141.20;100.00;60650.00;5029553;28;20053;-70
2023/07/20 06:45:22;;;;;;;4.40;2.78;;;;;;;-141.20;100.00;60650.00;5012918;28;20034;-70
2023/07/20 06:47:47;;;;;;;3.10;2.80;;;;;;;-141.20;100.00;60650.00;5014445;28;20030;-70
2023/07/20 06:50:13;;;;;;;12.18;10.93;;;;;;;-141.20;100.00;60650.00;5014404;28;20322;-70
2023/07/20 06:52:39;;;;;;;5.65;2.95;;;;;;;-141.20;100.00;60650.00;5014205;28;20075;-70
2023/07/20 06:55:06;;;;;;;4.90;3.50;;;;;;;-141.20;100.00;60650.00;5014439;28;20100;-70
2023/07/20 06:57:31;;;;;;;4.53;3.03;;;;;;;-141.20;100.00;60650.00;5014148;28;20029;-70
2023/07/20 06:59:56;;;;;;;19.20;11.52;;;;;;;-141.20;100.00;60650.00;5014195;28;20038;-71
2023/07/20 07:02:22;;;;;;;5.20;3.55;;;;;;;-141.20;100.00;60650.00;5014234;28;20033;-70
2023/07/20 07:04:47;;;;;;;3.28;2.50;;;;;;;-141.20;100.00;60650.00;5012601;28;20046;-71
2023/07/20 07:07:16;;;;;;;2.40;2.20;;;;;;;-141.20;100.00;60650.00;5018733;28;20104;-70
2023/07/20 07:09:42;;;;;;;3.67;2.72;;;;;;;-141.20;100.00;60650.00;5030167;28;20049;-70
2023/07/20 07:12:08;;;;;;;5.85;2.80;;;;;;;-141.20;100.00;60650.00;5023187;28;20071;-70
2023/07/20 07:14:33;;;;;;;5.78;2.65;;;;;;;-141.20;100.00;60650.00;5025329;28;20045;-71
2023/07/20 07:16:58;;;;;;;3.67;2.47;;;;;;;-141.20;100.00;60650.00;5012758;28;20018;-70
2023/07/20 07:19:24;;;;;;;5.00;2.65;;;;;;;-141.20;100.00;60650.00;5012452;28;20061;-70
2023/07/20 07:21:49;;;;;;;2.92;2.33;;;;;;;-141.20;100.00;60650.00;5013704;28;20124;-70
2023/07/20 07:24:15;;;;;;;3.78;2.35;;;;;;;-141.20;100.00;60650.00;5013256;28;20116;-71
2023/07/20 07:26:40;;;;;;;2.88;2.25;;;;;;;-141.20;100.00;60650.00;5011824;28;20117;-70
2023/07/20 07:29:05;;;;;;;3.75;2.70;;;;;;;-141.20;100.00;60650.00;5011752;28;20038;-71
2023/07/20 07:31:35;;;;;;;5.75;2.38;;;;;;;-141.20;100.00;60650.00;5007114;28;20030;-70
2023/07/20 07:34:01;;;;;;;5.43;2.30;;;;;;;-141.20;100.00;60650.00;5025022;28;20710;-70
2023/07/20 07:36:26;;;;;;;2.60;2.40;;;;;;;-141.20;100.00;60650.00;5031437;28;20040;-70
2023/07/20 07:38:51;;;;;;;5.05;2.67;;;;;;;-141.20;100.00;60650.00;5031225;28;20041;-70
2023/07/20 07:41:17;;;;;;;2.72;2.20;;;;;;;-141.20;100.00;60650.00;5027374;28;20468;-70
2023/07/20 07:43:42;;;;;;;4.57;2.20;;;;;;;-141.20;100.00;60650.00;5023536;28;20034;-70
2023/07/20 07:46:08;;;;;;;4.78;2.38;;;;;;;-141.20;100.00;60650.00;5011084;28;20026;-70
2023/07/20 07:48:33;;;;;;;2.90;2.50;;;;;;;-141.20;100.00;60650.00;5013097;28;20033;-70
2023/07/20 07:50:59;;;;;;;5.90;2.78;;;;;;;-141.20;100.00;60650.00;5013343;28;20436;-70
2023/07/20 07:53:25;;;;;;;3.25;2.47;;;;;;;-141.20;100.00;60650.00;5013049;28;20124;-70
2023/07/20 07:55:51;;;;;;;4.88;2.38;;;;;;;-141.20;100.00;60650.00;5013316;28;20163;-70
2023/07/20 07:58:17;;;;;;;2.80;2.28;;;;;;;-141.20;100.00;60650.00;5028368;28;20350;-70
2023/07/20 08:00:44;;;;;;;3.90;2.33;;;;;;;-141.20;100.00;60650.00;5032848;28;20022;-70
2023/07/20 08:03:09;;;;;;;4.70;2.95;;;;;;;-141.20;100.00;60650.00;5029371;28;20073;-70
2023/07/20 08:05:35;;;;;;;9.50;8.52;;;;;;;-141.20;100.00;60650.00;5018181;28;20058;-70
2023/07/20 08:08:01;;;;;;;2.95;2.20;;;;;;;-141.20;100.00;60650.00;5029270;28;20059;-70
2023/07/20 08:10:26;;;;;;;64.07;59.85;;;;;;;-141.20;100.00;60650.00;5032837;28;20029;-70
2023/07/20 08:12:52;;;;;;;4.80;1.98;;;;;;;-141.20;100.00;60650.00;5032480;28;20033;-70
2023/07/20 08:15:17;;;;;;;3.88;2.50;;;;;;;-141.20;100.00;60650.00;5032689;28;20534;-70
2023/07/20 08:17:44;;;;;;;3.97;1.90;;;;;;;-141.20;100.00;60650.00;5032277;28;20026;-70
2023/07/20 08:20:12;;;;;;;4.38;2.28;;;;;;;-141.20;100.00;60650.00;5021862;28;20040;-70
2023/07/20 08:22:37;;;;;;;4.97;1.80;;;;;;;-141.20;100.00;60650.00;5024262;28;20458;-70
2023/07/20 08:25:03;;;;;;;4.00;2.10;;;;;;;-141.20;100.00;60650.00;5012621;28;20540;-70
2023/07/20 08:27:29;;;;;;;5.35;1.60;;;;;;;-141.20;100.00;60650.00;5012509;28;20499;-70
2023/07/20 08:29:54;;;;;;;3.83;1.67;;;;;;;-141.20;100.00;60650.00;5012560;28;20030;-70
2023/07/20 08:32:19;;;;;;;5.13;1.63;;;;;;;-141.20;100.00;60650.00;5026188;28;20037;-70
2023/07/20 08:34:45;;;;;;;2.42;1.88;;;;;;;-141.20;100.00;60650.00;5021659;28;20049;-70
2023/07/20 08:37:10;;;;;;;2.38;1.77;;;;;;;-141.20;100.00;60650.00;5028365;28;20049;-70
2023/07/20 08:39:36;;;;;;;3.60;1.63;;;;;;;-141.20;100.00;60650.00;5032176;28;20025;-70
2023/07/20 08:42:06;;;;;;;4.75;1.95;;;;;;;-141.20;100.00;60650.00;5023914;28;20038;-70
2023/07/20 08:44:35;;;;;;;4.05;1.88;;;;;;;-141.20;100.00;60650.00;5016934;28;20049;-70
2023/07/20 08:47:04;;;;;;;3.17;1.70;;;;;;;-141.20;100.00;60650.00;5029051;28;20472;-70
2023/07/20 08:49:31;;;;;;;2.13;1.70;;;;;;;-141.20;100.00;60650.00;5020288;28;20484;-71
2023/07/20 08:51:57;;;;;;;5.15;1.73;;;;;;;-141.20;100.00;60650.00;5024948;28;20022;-70
2023/07/20 08:54:24;;;;;;;4.45;2.35;;;;;;;-141.20;100.00;60650.00;5028653;28;20040;-70
2023/07/20 08:56:50;;;;;;;1.80;1.65;;;;;;;-141.20;100.00;60650.00;5023594;28;20419;-70
2023/07/20 08:59:16;;;;;;;8.88;2.67;;;;;;;-141.20;100.00;60650.00;5018429;28;20052;-69
2023/07/20 09:01:43;;;;;;;2.72;1.40;;;;;;;-141.20;100.00;60650.00;5027090;28;20033;-70
2023/07/20 09:04:09;;;;;;;2.80;1.65;;;;;;;-141.20;100.00;60650.00;5031461;28;20033;-70
2023/07/20 09:06:35;;;;;;;48.05;29.08;;;;;;;-141.20;100.00;60650.00;5019578;28;20026;-70
2023/07/20 09:09:00;;;;;;;2.72;1.52;;;;;;;-141.20;100.00;60650.00;5016011;28;20164;-70
2023/07/20 09:11:26;;;;;;;14.02;13.00;;;;;;;-141.20;100.00;60650.00;5014328;28;20488;-70
2023/07/20 09:14:05;;;;;;;236.90;29.95;;;;;;;-141.20;100.00;60650.00;5025832;28;20200;-70
2023/07/20 09:16:30;;;;;;;5.63;1.70;;;;;;;-141.20;100.00;60650.00;5031259;28;20041;-70
2023/07/20 09:18:58;;;;;;;11.75;7.65;;;;;;;-141.20;100.00;60650.00;5024043;28;20025;-70
2023/07/20 09:21:23;;;;;;;64.18;60.80;;;;;;;-141.20;100.00;60650.00;5023318;28;20120;-70
2023/07/20 09:23:53;;;;;;;6.22;5.72;;;;;;;-141.20;100.00;60650.00;5023590;28;20052;-70
2023/07/20 09:26:19;;;;;;;10.38;9.68;;;;;;;-141.20;100.00;60650.00;5023842;28;20133;-70
2023/07/20 09:28:49;;;;;;;9.50;8.82;;;;;;;-141.20;100.00;60650.00;5018275;28;20128;-70
2023/07/20 09:31:19;;;;;;;57.13;33.65;;;;;;;-141.20;100.00;60650.00;5018168;28;20029;-70
2023/07/20 09:33:45;;;;;;;6.88;6.38;;;;;;;-141.20;100.00;60650.00;5029560;28;20048;-70
2023/07/20 09:36:13;;;;;;;89.40;58.38;;;;;;;-141.20;100.00;60650.00;5026458;28;20024;-70
2023/07/20 09:38:41;;;;;;;15.40;8.40;;;;;;;-141.20;100.00;60650.00;5016274;28;20084;-70
2023/07/20 09:41:06;;;;;;;11.63;11.02;;;;;;;-141.20;100.00;60650.00;5015713;28;20025;-70
2023/07/20 09:43:34;;;;;;;21.02;18.13;;;;;;;-141.20;100.00;60650.00;5030849;28;20041;-70
2023/07/20 09:45:59;;;;;;;10.38;9.88;;;;;;;-141.20;100.00;60650.00;5029907;28;20420;-70
2023/07/20 09:48:26;;;;;;;4.82;2.97;;;;;;;-141.20;100.00;60650.00;5015193;28;20068;-70
2023/07/20 09:50:52;;;;;;;89.88;60.20;;;;;;;-141.20;100.00;60650.00;5011185;28;20121;-70
2023/07/20 09:53:19;;;;;;;70.93;66.10;;;;;;;-141.20;100.00;60650.00;5022771;28;20037;-70
2023/07/20 09:55:46;;;;;;;5.32;2.30;;;;;;;-141.20;100.00;60650.00;5005323;28;20105;-70
2023/07/20 09:58:12;;;;;;;6.25;5.75;;;;;;;-141.20;100.00;60650.00;5006522;28;20065;-70
2023/07/20 10:00:38;;;;;;;14.57;11.77;;;;;;;-141.20;100.00;60650.00;5030985;28;20394;-70
2023/07/20 10:03:05;;;;;;;90.45;84.75;;;;;;;-141.20;100.00;60650.00;5027927;28;20092;-70
2023/07/20 10:05:34;;;;;;;6.50;6.10;;;;;;;-141.20;100.00;60650.00;5021233;28;20469;-70
2023/07/20 10:08:02;;;;;;;3.78;2.55;;;;;;;-141.20;100.00;60650.00;5011066;28;20129;-70
2023/07/20 10:10:27;;;;;;;12.85;11.52;;;;;;;-141.20;100.00;60650.00;5014044;28;20104;-70
2023/07/20 10:12:53;;;;;;;14.10;12.93;;;;;;;-141.20;100.00;60650.00;5028410;28;20045;-70
2023/07/20 10:15:22;;;;;;;25.02;12.85;;;;;;;-141.20;100.00;60650.00;5025084;28;20049;-70
2023/07/20 10:17:54;;;;;;;3.15;1.80;;;;;;;-141.20;100.00;60650.00;5016469;28;20033;-70
2023/07/20 10:20:21;;;;;;;162.05;58.75;;;;;;;-141.20;100.00;60650.00;5034101;28;20495;-70
2023/07/20 10:22:48;;;;;;;30.35;27.50;;;;;;;-141.20;100.00;60650.00;5016399;28;20494;-70
2023/07/20 10:25:14;;;;;;;4.05;1.90;;;;;;;-141.20;100.00;60650.00;5020408;28;20440;-70
2023/07/20 10:27:40;;;;;;;5.35;2.00;;;;;;;-141.20;100.00;60650.00;5017733;28;20113;-70
2023/07/20 10:30:06;;;;;;;2.25;1.80;;;;;;;-141.20;100.00;60650.00;5022093;28;20037;-70
2023/07/20 10:32:33;;;;;;;3.30;1.88;;;;;;;-141.20;100.00;60650.00;5025407;28;20029;-70
2023/07/20 10:34:59;;;;;;;2.53;2.00;;;;;;;-141.20;100.00;60650.00;5027566;28;20034;-70
2023/07/20 10:37:53;;;;;;;162.48;22.35;;;;;;;-141.20;100.00;60650.00;5026009;28;20092;-70
2023/07/20 10:40:30;;;;;;;11.02;10.13;;;;;;;-141.20;100.00;60650.00;5022328;28;20400;-70
2023/07/20 10:43:08;;;;;;;5.50;2.05;;;;;;;-141.20;100.00;60650.00;5025679;28;20026;-70
2023/07/20 10:45:42;;;;;;;46.53;26.90;;;;;;;-141.20;100.00;60650.00;5019818;28;20511;-70
2023/07/20 10:48:15;;;;;;;4.90;2.03;;;;;;;-141.20;100.00;60650.00;5013354;28;20026;-76
2023/07/20 10:50:42;;;;;;;3.63;2.65;;;;;;;-141.20;100.00;60650.00;5017470;28;20428;-76
2023/07/20 10:53:11;;;;;;;6.78;2.28;;;;;;;-141.20;100.00;60650.00;5003856;28;20022;-78
2023/07/20 10:55:37;;;;;;;12.73;11.77;;;;;;;-141.20;100.00;60650.00;5022045;28;20040;-76
2023/07/20 10:58:15;;;;;;;4.25;1.65;;;;;;;-141.20;100.00;60650.00;5019594;28;20033;-76
2023/07/20 11:01:03;;;;;;;3.67;2.22;;;;;;;-141.20;100.00;60650.00;5024910;28;20392;-75
2023/07/20 11:03:40;;;;;;;3.65;1.85;;;;;;;-141.20;100.00;60650.00;5019825;28;20041;-76
2023/07/20 11:06:24;;;;;;;3.08;1.80;;;;;;;-141.20;100.00;60650.00;5029069;28;20034;-76